Time;durP1;ratioP1;P1;durP2;ratioP2;P2;SDS_P1;SDS_P2;PMS_P1;PMS_P2;Temp;Humidity;BMP_temperature;BMP_pressure;BME280_temperature;BME280_humidity;BME280_pressure;Samples;Min_cycle;Max_cycle;Signal;HPM_P1;HPM_P2
2024/03/02 00:01:37;;;;;;;11.43;4.87;;;;;;;;;;5005999;28;20038;-64
2024/03/02 00:04:04;;;;;;;17.00;4.93;;;;;;;;;;4992360;28;20033;-64
2024/03/02 00:06:30;;;;;;;9.75;4.28;;;;;;;;;;4993423;28;20038;-64
2024/03/02 00:08:59;;;;;;;11.93;4.97;;;;;;;;;;4992087;28;20031;-64
2024/03/02 00:11:25;;;;;;;10.02;4.32;;;;;;;;;;4994183;28;20030;-64
2024/03/02 00:13:54;;;;;;;8.82;4.60;;;;;;;;;;4993269;28;20464;-64
2024/03/02 00:16:20;;;;;;;12.05;4.20;;;;;;;;;;5000415;28;20029;-64
2024/03/02 00:18:46;;;;;;;12.63;5.63;;;;;;;;;;5012254;28;20459;-64
2024/03/02 00:21:14;;;;;;;10.95;5.32;;;;;;;;;;5012684;28;20260;-64
2024/03/02 00:23:41;;;;;;;13.52;4.65;;;;;;;;;;5012631;28;20030;-64
2024/03/02 00:26:08;;;;;;;16.10;4.95;;;;;;;;;;5009550;28;20022;-65
2024/03/02 00:28:35;;;;;;;10.27;4.53;;;;;;;;;;5010475;28;20065;-64
2024/03/02 00:31:04;;;;;;;14.43;5.28;;;;;;;;;;5004867;28;20251;-64
2024/03/02 00:33:32;;;;;;;15.77;5.28;;;;;;;;;;4992861;28;20038;-64
2024/03/02 00:35:59;;;;;;;8.65;4.38;;;;;;;;;;4992756;28;20026;-64
2024/03/02 00:38:26;;;;;;;18.40;4.53;;;;;;;;;;5009342;28;20105;-63
2024/03/02 00:40:52;;;;;;;13.50;5.30;;;;;;;;;;5011144;28;20026;-64
2024/03/02 00:43:24;;;;;;;10.93;4.38;;;;;;;;;;5010844;28;20030;-64
2024/03/02 00:45:50;;;;;;;12.10;4.72;;;;;;;;;;5004703;28;20121;-64
2024/03/02 00:48:17;;;;;;;15.73;5.40;;;;;;;;;;5007855;28;20040;-64
2024/03/02 00:50:43;;;;;;;16.75;5.53;;;;;;;;;;5012180;28;20022;-64
2024/03/02 00:53:13;;;;;;;14.15;4.75;;;;;;;;;;5012216;28;20038;-64
2024/03/02 00:55:44;;;;;;;12.82;4.78;;;;;;;;;;5011807;28;20121;-64
2024/03/02 00:58:10;;;;;;;17.67;4.15;;;;;;;;;;4999709;28;20023;-63
2024/03/02 01:00:36;;;;;;;13.18;5.28;;;;;;;;;;5000928;28;20038;-64
2024/03/02 01:03:03;;;;;;;8.82;3.95;;;;;;;;;;5009618;28;20029;-64
2024/03/02 01:05:30;;;;;;;13.18;4.10;;;;;;;;;;5011804;28;20034;-64
2024/03/02 01:07:56;;;;;;;16.85;4.38;;;;;;;;;;5010772;28;20034;-63
2024/03/02 01:10:22;;;;;;;13.90;4.63;;;;;;;;;;5011760;28;20372;-63
2024/03/02 01:12:48;;;;;;;10.33;3.63;;;;;;;;;;5011851;28;20053;-64
2024/03/02 01:15:15;;;;;;;8.83;4.80;;;;;;;;;;5000308;28;20030;-64
2024/03/02 01:17:41;;;;;;;14.80;4.63;;;;;;;;;;5001907;28;20510;-64
2024/03/02 01:20:09;;;;;;;11.43;4.28;;;;;;;;;;5010667;28;20036;-64
2024/03/02 01:22:35;;;;;;;10.10;3.67;;;;;;;;;;5010505;28;20038;-64
2024/03/02 01:25:02;;;;;;;14.63;3.92;;;;;;;;;;5010214;28;20149;-64
2024/03/02 01:27:28;;;;;;;10.35;4.22;;;;;;;;;;4993276;28;20507;-64
2024/03/02 01:29:54;;;;;;;14.77;3.58;;;;;;;;;;5009895;28;20113;-63
2024/03/02 01:32:21;;;;;;;11.88;4.47;;;;;;;;;;4993209;28;20117;-64
2024/03/02 01:34:47;;;;;;;9.82;3.80;;;;;;;;;;4992111;28;20085;-64
2024/03/02 01:37:13;;;;;;;14.60;4.40;;;;;;;;;;4998211;28;20022;-64
2024/03/02 01:39:39;;;;;;;12.32;4.53;;;;;;;;;;5014272;28;20030;-64
2024/03/02 01:42:06;;;;;;;17.40;6.37;;;;;;;;;;5001531;28;20026;-64
2024/03/02 01:44:32;;;;;;;12.52;5.05;;;;;;;;;;4995840;28;20059;-64
2024/03/02 01:46:58;;;;;;;16.58;4.38;;;;;;;;;;5006544;28;20060;-64
2024/03/02 01:49:24;;;;;;;9.97;4.07;;;;;;;;;;4995835;28;20576;-64
2024/03/02 01:51:50;;;;;;;21.58;5.18;;;;;;;;;;4995763;28;20058;-64
2024/03/02 01:54:17;;;;;;;11.15;4.05;;;;;;;;;;4978304;28;20341;-64
2024/03/02 01:56:43;;;;;;;11.20;4.03;;;;;;;;;;4994190;28;20503;-63
2024/03/02 01:59:09;;;;;;;11.63;4.40;;;;;;;;;;5014010;28;20033;-64
2024/03/02 02:01:35;;;;;;;14.33;4.10;;;;;;;;;;5001075;28;20073;-64
2024/03/02 02:04:02;;;;;;;16.50;4.07;;;;;;;;;;4995754;28;20085;-64
2024/03/02 02:06:28;;;;;;;12.07;4.20;;;;;;;;;;4994321;28;20030;-64
2024/03/02 02:08:54;;;;;;;14.95;4.75;;;;;;;;;;5006364;28;20099;-64
2024/03/02 02:11:20;;;;;;;10.40;4.67;;;;;;;;;;4994131;28;20070;-64
2024/03/02 02:13:47;;;;;;;13.02;4.05;;;;;;;;;;5003821;28;20296;-64
2024/03/02 02:16:13;;;;;;;12.40;4.15;;;;;;;;;;5014972;28;20029;-64
2024/03/02 02:18:39;;;;;;;18.23;4.80;;;;;;;;;;5002898;28;20026;-64
2024/03/02 02:21:05;;;;;;;12.00;3.97;;;;;;;;;;4995353;28;20481;-64
2024/03/02 02:23:31;;;;;;;13.03;3.70;;;;;;;;;;4994375;28;20066;-64
2024/03/02 02:25:58;;;;;;;13.75;3.80;;;;;;;;;;5001730;28;20045;-64
2024/03/02 02:28:24;;;;;;;18.17;5.10;;;;;;;;;;5001495;28;20034;-64
2024/03/02 02:30:50;;;;;;;12.60;3.90;;;;;;;;;;4996044;28;20045;-64
2024/03/02 02:33:16;;;;;;;12.55;3.60;;;;;;;;;;5014545;28;20484;-64
2024/03/02 02:35:43;;;;;;;10.37;3.70;;;;;;;;;;4997074;28;20033;-63
2024/03/02 02:38:09;;;;;;;9.48;3.45;;;;;;;;;;5004766;28;20344;-64
2024/03/02 02:40:35;;;;;;;12.35;3.00;;;;;;;;;;4994012;28;20034;-64
2024/03/02 02:43:01;;;;;;;12.10;3.38;;;;;;;;;;4993925;28;20113;-64
2024/03/02 02:45:27;;;;;;;8.83;2.90;;;;;;;;;;4997571;28;20065;-64
2024/03/02 02:47:54;;;;;;;11.15;2.95;;;;;;;;;;5006310;28;20604;-64
2024/03/02 02:50:20;;;;;;;13.38;3.17;;;;;;;;;;5014190;28;20050;-64
2024/03/02 02:52:46;;;;;;;10.33;3.50;;;;;;;;;;5000569;28;20037;-64
2024/03/02 02:55:15;;;;;;;6.87;2.73;;;;;;;;;;4994774;28;20049;-64
2024/03/02 02:57:42;;;;;;;9.20;3.17;;;;;;;;;;5000628;28;20030;-64
2024/03/02 03:00:14;;;;;;;8.73;3.30;;;;;;;;;;5012535;28;20033;-63
2024/03/02 03:02:44;;;;;;;16.00;3.55;;;;;;;;;;5012492;28;20034;-64
2024/03/02 03:05:10;;;;;;;10.27;4.13;;;;;;;;;;5013130;28;20124;-64
2024/03/02 03:07:37;;;;;;;10.25;3.58;;;;;;;;;;5009425;28;20116;-64
2024/03/02 03:10:04;;;;;;;10.38;3.47;;;;;;;;;;4998966;28;20117;-64
2024/03/02 03:12:31;;;;;;;8.18;2.58;;;;;;;;;;4993251;28;20489;-63
2024/03/02 03:14:57;;;;;;;16.13;3.75;;;;;;;;;;4994615;28;20041;-64
2024/03/02 03:17:23;;;;;;;8.40;3.17;;;;;;;;;;5010681;28;20145;-65
2024/03/02 03:19:50;;;;;;;12.00;3.30;;;;;;;;;;4996380;28;20052;-64
2024/03/02 03:22:16;;;;;;;13.80;3.28;;;;;;;;;;5012612;28;20026;-63
2024/03/02 03:24:43;;;;;;;9.87;2.80;;;;;;;;;;5012205;28;20060;-64
2024/03/02 03:27:09;;;;;;;12.68;3.20;;;;;;;;;;5012904;28;20109;-64
2024/03/02 03:29:37;;;;;;;15.07;4.47;;;;;;;;;;4994194;28;20149;-63
2024/03/02 03:32:04;;;;;;;9.73;3.05;;;;;;;;;;5009579;28;20056;-64
2024/03/02 03:34:33;;;;;;;9.63;3.00;;;;;;;;;;5008284;28;20029;-64
2024/03/02 03:36:59;;;;;;;9.55;3.15;;;;;;;;;;4993884;28;20597;-64
2024/03/02 03:39:25;;;;;;;9.38;2.97;;;;;;;;;;5012353;28;20037;-64
2024/03/02 03:41:51;;;;;;;14.65;3.92;;;;;;;;;;5013418;28;20036;-63
2024/03/02 03:44:17;;;;;;;6.22;2.95;;;;;;;;;;4998615;28;20022;-64
2024/03/02 03:46:44;;;;;;;7.20;3.27;;;;;;;;;;5006743;28;20121;-64
2024/03/02 03:49:10;;;;;;;16.45;3.42;;;;;;;;;;5000636;28;20034;-65
2024/03/02 03:51:36;;;;;;;8.97;3.97;;;;;;;;;;5004534;28;20040;-64
2024/03/02 03:54:02;;;;;;;11.93;3.58;;;;;;;;;;4995230;28;20030;-65
2024/03/02 03:56:28;;;;;;;8.90;3.28;;;;;;;;;;4998476;28;20076;-64
2024/03/02 03:58:55;;;;;;;19.08;4.03;;;;;;;;;;5007209;28;20369;-65
2024/03/02 04:01:22;;;;;;;12.73;2.70;;;;;;;;;;5009421;28;20040;-65
2024/03/02 04:03:48;;;;;;;14.05;3.75;;;;;;;;;;5008361;28;20512;-64
2024/03/02 04:06:16;;;;;;;14.90;3.45;;;;;;;;;;5012661;28;20033;-65
2024/03/02 04:08:43;;;;;;;13.48;3.15;;;;;;;;;;5011745;28;20057;-64
2024/03/02 04:11:09;;;;;;;19.38;4.43;;;;;;;;;;5012699;28;20489;-64
2024/03/02 04:13:35;;;;;;;13.60;3.22;;;;;;;;;;5008434;28;20033;-64
2024/03/02 04:16:03;;;;;;;13.75;3.03;;;;;;;;;;4999511;28;20021;-64
2024/03/02 04:18:29;;;;;;;13.98;3.40;;;;;;;;;;5012675;28;20029;-64
2024/03/02 04:20:56;;;;;;;15.48;3.42;;;;;;;;;;5008966;28;20026;-64
2024/03/02 04:23:22;;;;;;;9.38;3.15;;;;;;;;;;4993028;28;20489;-63
2024/03/02 04:25:48;;;;;;;13.03;3.77;;;;;;;;;;4993016;28;20041;-64
2024/03/02 04:28:14;;;;;;;11.90;3.95;;;;;;;;;;4975586;28;20138;-64
2024/03/02 04:30:41;;;;;;;8.90;3.65;;;;;;;;;;5003619;28;20034;-64
2024/03/02 04:33:09;;;;;;;8.40;3.95;;;;;;;;;;4992840;28;20041;-64
2024/03/02 04:35:36;;;;;;;14.60;4.30;;;;;;;;;;4997866;28;20030;-64
2024/03/02 04:38:02;;;;;;;14.20;4.30;;;;;;;;;;4994922;28;20042;-63
2024/03/02 04:40:29;;;;;;;11.13;3.05;;;;;;;;;;4997219;28;20401;-64
2024/03/02 04:42:55;;;;;;;11.93;3.30;;;;;;;;;;4992826;28;20041;-64
2024/03/02 04:45:21;;;;;;;15.37;3.93;;;;;;;;;;4992876;28;20044;-64
2024/03/02 04:47:47;;;;;;;7.93;3.05;;;;;;;;;;4992662;28;20034;-64
2024/03/02 04:50:14;;;;;;;15.27;3.70;;;;;;;;;;4993548;28;20030;-64
2024/03/02 04:52:40;;;;;;;11.50;3.97;;;;;;;;;;4975047;28;20026;-64
2024/03/02 04:55:09;;;;;;;13.68;3.95;;;;;;;;;;4991463;28;20034;-62
2024/03/02 04:57:36;;;;;;;21.63;4.38;;;;;;;;;;5010558;28;20029;-62
2024/03/02 05:00:06;;;;;;;13.57;4.20;;;;;;;;;;5010422;28;20068;-63
2024/03/02 05:02:33;;;;;;;14.10;3.78;;;;;;;;;;5008906;28;20127;-63
2024/03/02 05:04:59;;;;;;;15.70;3.30;;;;;;;;;;5010402;28;20028;-62
2024/03/02 05:07:25;;;;;;;15.68;3.75;;;;;;;;;;5010728;28;20271;-63
2024/03/02 05:09:51;;;;;;;9.57;3.90;;;;;;;;;;5009350;28;20034;-63
2024/03/02 05:15:03;;;;;;;6.97;3.33;;;;;;;;;;5010823;28;20053;-50
2024/03/02 05:17:29;;;;;;;17.52;4.57;;;;;;;;;;5011657;28;20452;-51
2024/03/02 05:19:56;;;;;;;14.80;5.35;;;;;;;;;;5012012;28;20443;-52
2024/03/02 05:22:22;;;;;;;17.10;3.65;;;;;;;;;;5010791;28;20034;-55
2024/03/02 05:24:48;;;;;;;17.88;3.67;;;;;;;;;;5010829;28;20030;-51
2024/03/02 05:27:14;;;;;;;13.38;3.30;;;;;;;;;;5011771;28;20587;-52
2024/03/02 05:29:41;;;;;;;8.23;3.22;;;;;;;;;;5011860;28;20018;-52
2024/03/02 05:32:07;;;;;;;11.55;4.32;;;;;;;;;;5011626;28;20101;-49
2024/03/02 05:34:35;;;;;;;10.33;3.60;;;;;;;;;;5011811;28;20034;-52
2024/03/02 05:37:01;;;;;;;12.90;3.47;;;;;;;;;;4994041;28;20030;-51
2024/03/02 05:39:28;;;;;;;17.02;4.32;;;;;;;;;;5011868;28;20080;-53
2024/03/02 05:41:54;;;;;;;18.92;4.22;;;;;;;;;;5011675;28;20065;-52
2024/03/02 05:44:20;;;;;;;13.73;3.25;;;;;;;;;;5011751;28;20037;-51
2024/03/02 05:46:47;;;;;;;10.95;4.05;;;;;;;;;;5011540;28;20030;-51
2024/03/02 05:49:13;;;;;;;12.73;3.70;;;;;;;;;;5011676;28;20026;-51
2024/03/02 05:51:39;;;;;;;13.25;5.25;;;;;;;;;;5011655;28;20692;-52
2024/03/02 05:54:05;;;;;;;13.25;3.90;;;;;;;;;;5011558;28;20033;-52
2024/03/02 05:56:32;;;;;;;15.45;5.13;;;;;;;;;;5010226;28;20025;-53
2024/03/02 05:59:16;;;;;;;14.40;4.72;;;;;;;;;;5011619;28;20472;-52
2024/03/02 06:01:43;;;;;;;13.10;3.97;;;;;;;;;;5010259;28;20022;-52
2024/03/02 06:04:13;;;;;;;16.35;3.72;;;;;;;;;;4993968;28;20038;-51
2024/03/02 06:06:39;;;;;;;7.47;3.55;;;;;;;;;;5010057;28;20030;-53
2024/03/02 06:09:07;;;;;;;16.17;3.92;;;;;;;;;;5011730;28;20594;-52
2024/03/02 06:11:41;;;;;;;7.82;3.55;;;;;;;;;;5011246;28;20042;-52
2024/03/02 06:14:09;;;;;;;11.15;4.25;;;;;;;;;;5011247;28;20392;-51
2024/03/02 06:16:35;;;;;;;11.02;3.67;;;;;;;;;;5011191;28;20034;-55
2024/03/02 06:19:02;;;;;;;18.33;3.65;;;;;;;;;;5011354;28;20393;-51
2024/03/02 06:21:28;;;;;;;19.02;4.25;;;;;;;;;;5009800;28;20117;-52
2024/03/02 06:23:55;;;;;;;19.30;5.30;;;;;;;;;;5011346;28;20109;-52
2024/03/02 06:26:21;;;;;;;11.43;4.38;;;;;;;;;;5014731;28;20133;-51
2024/03/02 06:28:47;;;;;;;4.00;2.70;;;;;;;;;;5013505;28;20488;-53
2024/03/02 06:31:14;;;;;;;19.90;4.07;;;;;;;;;;5014715;28;20096;-54
2024/03/02 06:33:41;;;;;;;11.67;4.30;;;;;;;;;;5014687;28;20427;-53
2024/03/02 06:36:11;;;;;;;11.05;4.30;;;;;;;;;;5014549;28;20125;-51
2024/03/02 06:38:40;;;;;;;13.45;3.70;;;;;;;;;;4997056;28;20057;-51
2024/03/02 06:41:06;;;;;;;12.95;4.75;;;;;;;;;;4996849;28;20105;-53
2024/03/02 06:43:32;;;;;;;11.90;4.20;;;;;;;;;;5014551;28;20030;-51
2024/03/02 06:45:59;;;;;;;16.10;5.97;;;;;;;;;;5014339;28;20323;-51
2024/03/02 06:48:25;;;;;;;13.48;5.47;;;;;;;;;;5013191;28;20034;-50
2024/03/02 06:50:52;;;;;;;22.27;4.93;;;;;;;;;;5014442;28;20030;-54
2024/03/02 06:53:19;;;;;;;14.63;5.93;;;;;;;;;;5012867;28;20034;-51
2024/03/02 06:55:45;;;;;;;10.23;4.22;;;;;;;;;;5013122;28;20057;-53
2024/03/02 06:58:12;;;;;;;14.90;4.55;;;;;;;;;;5013008;28;20026;-52
2024/03/02 07:00:38;;;;;;;14.70;5.07;;;;;;;;;;5013106;28;20488;-51
2024/03/02 07:03:05;;;;;;;9.57;4.32;;;;;;;;;;5014126;28;20496;-52
2024/03/02 07:05:31;;;;;;;11.63;4.33;;;;;;;;;;4996466;28;20447;-54
2024/03/02 07:07:57;;;;;;;11.77;4.57;;;;;;;;;;5014041;28;20352;-53
2024/03/02 07:10:24;;;;;;;16.63;5.17;;;;;;;;;;5012836;28;20034;-50
2024/03/02 07:12:50;;;;;;;14.98;6.50;;;;;;;;;;5012565;28;20053;-52
2024/03/02 07:17:54;;;;;;;14.10;7.10;;;;;;;;;;5005347;28;20064;-53
2024/03/02 07:20:21;;;;;;;11.23;4.77;;;;;;;;;;4994295;28;20034;-51
2024/03/02 07:22:47;;;;;;;14.70;7.27;;;;;;;;;;4994244;28;20026;-54
2024/03/02 07:25:13;;;;;;;10.77;5.07;;;;;;;;;;4994279;28;20348;-51
2024/03/02 07:27:40;;;;;;;12.10;5.93;;;;;;;;;;4993101;28;20049;-50
2024/03/02 07:30:07;;;;;;;16.90;6.75;;;;;;;;;;4994125;28;20026;-51
2024/03/02 07:32:33;;;;;;;11.05;5.90;;;;;;;;;;4993981;28;20093;-51
2024/03/02 07:35:01;;;;;;;15.38;7.10;;;;;;;;;;4994009;28;20030;-53
2024/03/02 07:37:27;;;;;;;14.95;6.13;;;;;;;;;;4993174;28;20098;-52
2024/03/02 07:39:53;;;;;;;13.17;5.10;;;;;;;;;;4994066;28;20026;-52
2024/03/02 07:42:20;;;;;;;11.80;5.50;;;;;;;;;;4992632;28;20033;-55
2024/03/02 07:44:46;;;;;;;17.35;6.57;;;;;;;;;;4992546;28;20026;-51
2024/03/02 07:47:12;;;;;;;17.77;12.90;;;;;;;;;;5009169;28;20197;-52
2024/03/02 07:49:39;;;;;;;27.47;17.30;;;;;;;;;;5013346;28;20044;-51
2024/03/02 07:52:05;;;;;;;17.60;11.03;;;;;;;;;;5013365;28;20351;-52
2024/03/02 07:54:31;;;;;;;12.98;6.18;;;;;;;;;;5013280;28;20065;-51
2024/03/02 07:56:58;;;;;;;13.05;6.80;;;;;;;;;;5013039;28;20030;-51
2024/03/02 07:59:24;;;;;;;;;;;;;;;;;;5012313;28;20037;-51
2024/03/02 08:01:51;;;;;;;9.30;5.05;;;;;;;;;;5013076;28;19917;-52
2024/03/02 08:04:17;;;;;;;11.30;5.13;;;;;;;;;;5013062;28;20038;-53
2024/03/02 08:06:43;;;;;;;11.33;4.93;;;;;;;;;;5012964;28;20054;-52
2024/03/02 08:09:10;;;;;;;9.05;4.93;;;;;;;;;;5011857;28;20038;-50
2024/03/02 08:11:37;;;;;;;15.00;6.77;;;;;;;;;;5012664;28;20408;-50
2024/03/02 08:14:03;;;;;;;;;;;;;;;;;;5013329;28;20805;-57
2024/03/02 08:16:29;;;;;;;14.82;6.57;;;;;;;;;;5012676;28;19913;-52
2024/03/02 08:18:57;;;;;;;14.87;6.13;;;;;;;;;;5012640;28;20380;-54
2024/03/02 08:21:24;;;;;;;11.73;7.35;;;;;;;;;;5012696;28;20034;-51
2024/03/02 08:23:51;;;;;;;9.70;5.95;;;;;;;;;;5012696;28;20030;-52
2024/03/02 08:26:17;;;;;;;14.30;5.57;;;;;;;;;;5011221;28;20124;-53
2024/03/02 08:28:43;;;;;;;13.23;6.32;;;;;;;;;;5012725;28;20113;-52
2024/03/02 08:31:10;;;;;;;10.77;6.18;;;;;;;;;;5012627;28;20113;-51
2024/03/02 08:33:36;;;;;;;15.75;5.53;;;;;;;;;;5012613;28;20025;-53
2024/03/02 08:36:03;;;;;;;9.93;4.45;;;;;;;;;;5012495;28;20083;-54
2024/03/02 08:38:29;;;;;;;16.02;8.43;;;;;;;;;;5011184;28;20042;-52
2024/03/02 08:40:55;;;;;;;13.20;5.83;;;;;;;;;;5011108;28;20046;-53
2024/03/02 08:43:24;;;;;;;15.80;5.85;;;;;;;;;;5011326;28;20033;-51
2024/03/02 08:45:51;;;;;;;15.95;6.55;;;;;;;;;;5007592;28;20113;-51
2024/03/02 08:48:17;;;;;;;11.20;5.63;;;;;;;;;;4992691;28;20444;-50
2024/03/02 08:50:43;;;;;;;12.73;4.85;;;;;;;;;;4992940;28;20397;-50
2024/03/02 08:53:10;;;;;;;14.07;5.15;;;;;;;;;;4992611;28;20030;-51
2024/03/02 08:55:36;;;;;;;12.30;4.82;;;;;;;;;;4992359;28;20069;-52
2024/03/02 08:58:02;;;;;;;7.63;3.70;;;;;;;;;;4991304;28;20489;-52
2024/03/02 09:00:28;;;;;;;9.37;5.20;;;;;;;;;;4992570;28;20031;-51
2024/03/02 09:02:55;;;;;;;7.85;4.43;;;;;;;;;;4991268;28;20022;-50
2024/03/02 09:05:21;;;;;;;14.63;6.20;;;;;;;;;;4992400;28;20030;-51
2024/03/02 09:07:47;;;;;;;8.75;4.00;;;;;;;;;;4991263;28;20042;-50
2024/03/02 09:10:13;;;;;;;11.38;4.20;;;;;;;;;;4992261;28;20703;-52
2024/03/02 09:12:40;;;;;;;15.32;4.57;;;;;;;;;;4992199;28;20034;-51
2024/03/02 09:15:06;;;;;;;11.30;4.90;;;;;;;;;;4992215;28;20038;-51
2024/03/02 09:17:32;;;;;;;11.30;4.53;;;;;;;;;;4992293;28;20026;-57
2024/03/02 09:19:58;;;;;;;7.60;3.85;;;;;;;;;;4992327;28;20657;-55
2024/03/02 09:22:24;;;;;;;11.02;4.88;;;;;;;;;;4990893;28;20117;-54
2024/03/02 09:24:51;;;;;;;11.23;4.80;;;;;;;;;;4991755;28;20030;-52
2024/03/02 09:27:17;;;;;;;12.57;5.20;;;;;;;;;;4992144;28;20030;-55
2024/03/02 09:29:43;;;;;;;11.77;4.90;;;;;;;;;;4992203;28;20027;-52
2024/03/02 09:32:13;;;;;;;11.13;4.87;;;;;;;;;;4992076;28;20031;-52
2024/03/02 09:34:39;;;;;;;12.50;5.50;;;;;;;;;;4992033;28;20584;-53
2024/03/02 09:37:05;;;;;;;11.90;6.03;;;;;;;;;;4992016;28;20022;-52
2024/03/02 09:39:32;;;;;;;8.60;5.32;;;;;;;;;;4990953;28;20512;-52
2024/03/02 09:41:59;;;;;;;11.93;6.20;;;;;;;;;;4992076;28;20018;-54
2024/03/02 09:44:26;;;;;;;12.98;6.70;;;;;;;;;;4992031;28;20543;-51
2024/03/02 09:46:52;;;;;;;10.98;5.30;;;;;;;;;;4991961;28;20034;-51
2024/03/02 09:49:19;;;;;;;16.50;5.20;;;;;;;;;;4992287;28;20038;-51
2024/03/02 09:51:47;;;;;;;15.60;5.90;;;;;;;;;;4991857;28;20265;-51
2024/03/02 09:54:13;;;;;;;14.40;5.68;;;;;;;;;;4991917;28;20473;-51
2024/03/02 09:56:40;;;;;;;9.70;5.17;;;;;;;;;;4991819;28;20722;-51
2024/03/02 09:59:06;;;;;;;11.70;5.53;;;;;;;;;;4991949;28;20149;-51
2024/03/02 10:01:32;;;;;;;13.77;7.23;;;;;;;;;;4995726;28;20571;-51
2024/03/02 10:04:04;;;;;;;13.00;6.05;;;;;;;;;;4995797;28;20062;-51
2024/03/02 10:06:31;;;;;;;20.92;6.05;;;;;;;;;;4995329;28;20038;-51
2024/03/02 10:08:57;;;;;;;8.70;5.85;;;;;;;;;;4995529;28;20029;-51
2024/03/02 10:11:31;;;;;;;13.67;7.57;;;;;;;;;;4995273;28;20030;-51
2024/03/02 10:14:10;;;;;;;16.90;8.18;;;;;;;;;;4995431;28;20057;-51
2024/03/02 10:16:39;;;;;;;17.02;9.52;;;;;;;;;;4995234;28;20089;-52
2024/03/02 10:19:20;;;;;;;21.45;11.13;;;;;;;;;;4995467;28;20101;-52
2024/03/02 10:21:53;;;;;;;11.48;7.00;;;;;;;;;;4995167;28;20034;-53
2024/03/02 10:24:20;;;;;;;14.55;6.95;;;;;;;;;;4995229;28;20404;-50
2024/03/02 10:26:46;;;;;;;10.85;5.93;;;;;;;;;;4995107;28;20080;-50
2024/03/02 10:29:13;;;;;;;16.50;7.37;;;;;;;;;;4995149;28;20030;-51
2024/03/02 10:31:39;;;;;;;11.00;6.73;;;;;;;;;;4995090;28;20261;-50
2024/03/02 10:34:06;;;;;;;13.50;6.53;;;;;;;;;;4993644;28;20289;-50
2024/03/02 10:36:34;;;;;;;11.98;5.75;;;;;;;;;;4994939;28;20023;-52
2024/03/02 10:39:03;;;;;;;17.55;7.65;;;;;;;;;;4994991;28;20588;-50
2024/03/02 10:41:32;;;;;;;11.73;6.72;;;;;;;;;;4993781;28;20442;-51
2024/03/02 10:43:59;;;;;;;12.68;7.03;;;;;;;;;;4993711;28;20042;-50
2024/03/02 10:46:31;;;;;;;13.82;7.78;;;;;;;;;;4994744;28;20026;-51
2024/03/02 10:49:01;;;;;;;11.10;6.50;;;;;;;;;;4994919;28;20085;-51
2024/03/02 10:51:28;;;;;;;9.50;6.78;;;;;;;;;;4994822;28;20089;-51
2024/03/02 10:53:55;;;;;;;13.57;7.75;;;;;;;;;;4994653;28;20038;-50
2024/03/02 10:56:37;;;;;;;15.35;6.10;;;;;;;;;;4994581;28;20041;-51
2024/03/02 10:59:07;;;;;;;12.73;7.60;;;;;;;;;;4993589;28;20455;-51
2024/03/02 11:01:33;;;;;;;23.00;8.13;;;;;;;;;;4994627;28;20026;-51
2024/03/02 11:04:03;;;;;;;10.15;7.22;;;;;;;;;;4994787;28;20039;-50
2024/03/02 11:06:32;;;;;;;16.27;8.80;;;;;;;;;;4994479;28;20416;-51
2024/03/02 11:09:03;;;;;;;9.82;6.88;;;;;;;;;;4993569;28;20130;-51
2024/03/02 11:11:30;;;;;;;12.60;8.00;;;;;;;;;;4944072;23;2170866;-52
2024/03/02 11:13:59;;;;;;;10.00;7.45;;;;;;;;;;4972870;28;20038;-51
2024/03/02 11:16:30;;;;;;;10.13;7.20;;;;;;;;;;4974704;28;20035;-51
2024/03/02 11:18:58;;;;;;;9.27;7.72;;;;;;;;;;4975114;28;20070;-52
2024/03/02 11:21:26;;;;;;;15.32;8.77;;;;;;;;;;4972649;28;20023;-51
2024/03/02 11:23:52;;;;;;;12.10;7.70;;;;;;;;;;4955563;29;20073;-53
2024/03/02 11:26:23;;;;;;;10.30;7.63;;;;;;;;;;4953258;29;20035;-54
2024/03/02 11:28:49;;;;;;;13.90;7.50;;;;;;;;;;4944816;29;20116;-52
2024/03/02 11:31:15;;;;;;;18.83;11.10;;;;;;;;;;4959706;28;20034;-55
2024/03/02 11:33:42;;;;;;;16.30;7.07;;;;;;;;;;4941369;29;20028;-55
2024/03/02 11:36:09;;;;;;;20.23;13.52;;;;;;;;;;4955297;29;20039;-52
2024/03/02 11:38:36;;;;;;;31.25;20.85;;;;;;;;;;4947028;29;20462;-52
2024/03/02 11:41:07;;;;;;;12.40;8.57;;;;;;;;;;4936261;29;20023;-52
2024/03/02 11:43:33;;;;;;;17.83;12.73;;;;;;;;;;4941611;29;20046;-56
2024/03/02 11:46:06;;;;;;;16.30;14.67;;;;;;;;;;4943615;29;20457;-54
2024/03/02 11:48:33;;;;;;;13.10;8.40;;;;;;;;;;4968011;28;20286;-53
2024/03/02 11:51:00;;;;;;;17.58;13.57;;;;;;;;;;4953812;29;20050;-53
2024/03/02 11:53:31;;;;;;;11.38;9.80;;;;;;;;;;4953205;28;20486;-51
2024/03/02 11:55:58;;;;;;;15.05;9.88;;;;;;;;;;4941687;29;20028;-51
2024/03/02 11:58:26;;;;;;;9.95;6.28;;;;;;;;;;4936815;29;20060;-52
2024/03/02 12:00:56;;;;;;;9.68;6.93;;;;;;;;;;4936748;29;20028;-53
2024/03/02 12:03:23;;;;;;;8.98;6.35;;;;;;;;;;4948904;28;20040;-53
2024/03/02 12:05:58;;;;;;;12.27;8.18;;;;;;;;;;4939179;29;20145;-51
2024/03/02 12:08:25;;;;;;;9.57;7.28;;;;;;;;;;4953396;29;20038;-53
2024/03/02 12:10:58;;;;;;;17.45;10.15;;;;;;;;;;4951599;29;20045;-52
2024/03/02 12:13:24;;;;;;;13.23;9.85;;;;;;;;;;4939134;29;20398;-53
2024/03/02 12:15:54;;;;;;;12.63;7.25;;;;;;;;;;4941150;29;20030;-51
2024/03/02 12:18:20;;;;;;;11.75;6.20;;;;;;;;;;4953270;29;20055;-52
2024/03/02 12:20:46;;;;;;;8.23;6.13;;;;;;;;;;4945988;29;20106;-56
2024/03/02 12:23:12;;;;;;;10.57;6.53;;;;;;;;;;4947871;28;20031;-55
2024/03/02 12:25:39;;;;;;;11.40;6.97;;;;;;;;;;4942748;29;20114;-52
2024/03/02 12:28:05;;;;;;;11.47;7.27;;;;;;;;;;4939443;29;20035;-52
2024/03/02 12:30:33;;;;;;;8.88;6.82;;;;;;;;;;4939857;29;20562;-53
2024/03/02 12:33:00;;;;;;;12.60;6.32;;;;;;;;;;4958659;28;20040;-51
2024/03/02 12:35:26;;;;;;;10.77;6.13;;;;;;;;;;4946186;29;20051;-54
2024/03/02 12:37:53;;;;;;;13.23;6.40;;;;;;;;;;4945424;28;20114;-53
2024/03/02 12:40:20;;;;;;;10.88;6.97;;;;;;;;;;4951610;29;20054;-52
2024/03/02 12:42:47;;;;;;;9.85;5.88;;;;;;;;;;4943569;28;20028;-55
2024/03/02 12:45:23;;;;;;;17.63;14.35;;;;;;;;;;4934306;29;20090;-52
2024/03/02 12:47:50;;;;;;;10.90;5.97;;;;;;;;;;4961888;28;20064;-54
2024/03/02 12:50:16;;;;;;;8.25;6.45;;;;;;;;;;4935117;28;20058;-52
2024/03/02 12:52:42;;;;;;;7.75;6.25;;;;;;;;;;4952555;28;20050;-48
2024/03/02 12:55:10;;;;;;;8.52;6.43;;;;;;;;;;4952352;29;20027;-51
2024/03/02 12:57:36;;;;;;;;;;;;;;;;;;4951915;29;20110;-52
2024/03/02 13:00:12;;;;;;;11.43;7.70;;;;;;;;;;4935456;29;20341;-50
2024/03/02 13:02:42;;;;;;;8.40;6.93;;;;;;;;;;4951330;28;20074;-50
2024/03/02 13:05:11;;;;;;;10.55;6.40;;;;;;;;;;4939434;29;20042;-50
2024/03/02 13:07:37;;;;;;;9.82;6.32;;;;;;;;;;4952155;29;20058;-50
2024/03/02 13:10:04;;;;;;;11.02;7.50;;;;;;;;;;4947798;29;20031;-53
2024/03/02 13:12:31;;;;;;;9.43;6.25;;;;;;;;;;4932924;29;20110;-52
2024/03/02 13:15:02;;;;;;;10.90;8.18;;;;;;;;;;4948140;29;20032;-51
2024/03/02 13:17:28;;;;;;;16.40;9.50;;;;;;;;;;4949697;29;20031;-53
2024/03/02 13:19:58;;;;;;;16.00;14.30;;;;;;;;;;4950640;29;20059;-52
2024/03/02 13:22:25;;;;;;;18.98;17.05;;;;;;;;;;4951680;29;20042;-51
2024/03/02 13:24:52;;;;;;;21.15;18.92;;;;;;;;;;4966665;28;20190;-51
2024/03/02 13:27:21;;;;;;;;;;;;;;;;;;4947699;29;20044;-52
2024/03/02 13:29:48;;;;;;;11.70;8.65;;;;;;;;;;4931043;29;20306;-51
2024/03/02 13:32:14;;;;;;;10.38;7.00;;;;;;;;;;4934756;29;20039;-51
2024/03/02 13:34:41;;;;;;;12.15;7.18;;;;;;;;;;4933576;29;20040;-52
2024/03/02 13:37:07;;;;;;;14.20;7.75;;;;;;;;;;4937067;29;20039;-54
2024/03/02 13:39:39;;;;;;;9.50;6.40;;;;;;;;;;4945732;29;20429;-53
2024/03/02 13:42:08;;;;;;;10.23;6.80;;;;;;;;;;4967564;28;20826;-52
2024/03/02 13:44:34;;;;;;;12.15;8.30;;;;;;;;;;4954703;29;20031;-51
2024/03/02 13:47:01;;;;;;;21.77;9.93;;;;;;;;;;4953999;29;20035;-51
2024/03/02 13:49:34;;;;;;;10.88;6.72;;;;;;;;;;4954358;29;20129;-52
2024/03/02 13:52:03;;;;;;;12.70;9.32;;;;;;;;;;4946104;29;20042;-50
2024/03/02 13:54:30;;;;;;;32.15;24.08;;;;;;;;;;4945947;29;20024;-53
2024/03/02 13:56:58;;;;;;;17.40;14.02;;;;;;;;;;4937748;29;20024;-50
2024/03/02 13:59:24;;;;;;;9.80;8.13;;;;;;;;;;4946194;28;20039;-51
2024/03/02 14:01:51;;;;;;;16.35;8.43;;;;;;;;;;4935015;29;20035;-53
2024/03/02 14:04:17;;;;;;;10.23;7.47;;;;;;;;;;4950866;29;20067;-51
2024/03/02 14:06:44;;;;;;;8.50;7.17;;;;;;;;;;4953996;29;20031;-51
2024/03/02 14:09:10;;;;;;;12.25;8.05;;;;;;;;;;4950327;29;20434;-52
2024/03/02 14:11:36;;;;;;;15.77;8.90;;;;;;;;;;4950302;28;20035;-51
2024/03/02 14:14:02;;;;;;;14.65;9.18;;;;;;;;;;4955336;29;20032;-52
2024/03/02 14:16:29;;;;;;;11.00;8.60;;;;;;;;;;4955267;29;20023;-52
2024/03/02 14:18:56;;;;;;;9.88;8.23;;;;;;;;;;4955177;29;20028;-52
2024/03/02 14:21:23;;;;;;;11.25;8.00;;;;;;;;;;4953950;29;20034;-52
2024/03/02 14:23:49;;;;;;;11.77;8.02;;;;;;;;;;4953914;29;20035;-51
2024/03/02 14:26:16;;;;;;;13.93;9.10;;;;;;;;;;4951863;29;20118;-51
2024/03/02 14:28:42;;;;;;;14.65;9.82;;;;;;;;;;4950606;29;20494;-51
2024/03/02 14:31:08;;;;;;;19.92;13.13;;;;;;;;;;4933873;28;20107;-52
2024/03/02 14:33:35;;;;;;;28.53;13.57;;;;;;;;;;4935599;29;20036;-50
2024/03/02 14:36:01;;;;;;;16.20;10.30;;;;;;;;;;4935448;29;20039;-46
2024/03/02 14:38:28;;;;;;;12.57;9.13;;;;;;;;;;4934349;29;20478;-47